Data for 02/04/2015

Time Sea-Level Adjusted Pressure Absolute Pressure Temperature Relative Humidity Dew Point   
(mb) (inHg) (mb) (inHg) (C) (F) (%) (C) (F)
00:05 1018 30.06 847 25.01 -4.9 23.1 90 -6.3 20.6
00:10 1018 30.06 848 25.04 -5 22.9 90 -6.4 20.5
00:15 1018 30.06 848 25.04 -5.1 22.8 90 -6.5 20.4
00:20 1018 30.06 848 25.04 -5.1 22.7 90 -6.5 20.3
00:25 1019 30.09 848 25.04 -5.2 22.6 90 -6.6 20.2
00:30 1019 30.09 848 25.04 -5.3 22.4 89 -6.9 19.6
00:35 1019 30.09 848 25.04 -5.5 22 89 -7.1 19.2
00:40 1019 30.09 848 25.04 -5.7 21.7 89 -7.3 18.9
00:45 1019 30.09 848 25.04 -5.9 21.5 89 -7.4 18.7
00:50 1019 30.09 848 25.04 -6.1 21.1 89 -7.6 18.2
00:55 1019 30.09 848 25.04 -6.4 20.5 89 -7.9 17.8
01:00 1019 30.09 848 25.04 -6.7 20 89 -8.3 17.1
01:05 1019 30.09 849 25.07 -6.8 19.7 90 -8.3 17.1
01:10 1020 30.12 849 25.07 -6.8 19.8 90 -8.2 17.2
01:15 1019 30.09 849 25.07 -6.9 19.6 88 -8.5 16.7
01:20 1020 30.12 849 25.07 -7 19.4 88 -8.6 16.4
01:25 1020 30.12 849 25.07 -7.1 19.3 89 -8.6 16.5
01:30 1020 30.12 849 25.07 -7.1 19.2 89 -8.6 16.6
01:35 1020 30.12 849 25.07 -7.1 19.3 89 -8.6 16.6
01:40 1020 30.12 849 25.07 -7 19.5 90 -8.4 16.9
01:45 1020 30.12 849 25.07 -6.8 19.7 88 -8.5 16.8
01:50 1020 30.12 849 25.07 -6.7 19.9 87 -8.6 16.5
01:55 1020 30.12 849 25.07 -6.7 20 85 -8.8 16.1
02:00 1020 30.12 849 25.07 -6.6 20 83 -9.1 15.7
02:05 1020 30.12 849 25.07 -6.7 20 83 -9.2 15.5
02:10 1020 30.12 849 25.07 -6.6 20.1 81 -9.4 15.1
02:15 1020 30.12 849 25.07 -6.6 20.2 80 -9.5 15
02:20 1020 30.12 849 25.07 -6.4 20.4 80 -9.4 15.1
02:25 1020 30.12 849 25.07 -6.3 20.6 79 -9.3 15.2
02:30 1020 30.12 849 25.07 -6.2 20.8 78 -9.4 15.1
02:35 1020 30.12 849 25.07 -6.2 20.9 77 -9.5 14.9
02:40 1020 30.12 849 25.07 -6.2 20.8 79 -9.2 15.4
02:45 1020 30.12 849 25.07 -6.3 20.7 80 -9.2 15.5
02:50 1020 30.12 849 25.07 -6.3 20.7 80 -9.2 15.5
02:55 1020 30.12 849 25.07 -6.3 20.6 80 -9.2 15.4
03:00 1020 30.12 849 25.07 -6.3 20.6 80 -9.2 15.4
03:05 1020 30.12 849 25.07 -6.2 20.8 79 -9.2 15.4
03:10 1020 30.12 849 25.07 -6.2 20.9 79 -9.3 15.3
03:15 1020 30.12 849 25.07 -6.1 21.1 78 -9.3 15.2
03:20 1020 30.12 849 25.07 -5.9 21.3 77 -9.3 15.2
03:25 1020 30.12 849 25.07 -6 21.2 78 -9.3 15.3
03:30 1020 30.12 849 25.07 -6 21.3 77 -9.3 15.2
03:35 1020 30.12 849 25.07 -5.9 21.3 76 -9.5 14.9
03:40 1020 30.12 849 25.07 -5.9 21.4 77 -9.4 15.1
03:45 1020 30.12 849 25.07 -5.9 21.3 76 -9.5 14.9
03:50 1020 30.12 849 25.07 -6 21.2 77 -9.4 15
03:55 1020 30.12 849 25.07 -6 21.2 76 -9.6 14.7
04:00 1020 30.12 849 25.07 -5.9 21.3 76 -9.5 14.8
04:05 1020 30.12 849 25.07 -5.9 21.4 76 -9.4 15.1
04:10 1020 30.12 849 25.07 -5.9 21.5 77 -9.3 15.2
04:15 1020 30.12 849 25.07 -5.8 21.6 76 -9.3 15.2
04:20 1020 30.12 850 25.1 -5.8 21.6 76 -9.3 15.2
04:25 1021 30.15 850 25.1 -5.8 21.5 77 -9.3 15.3
04:30 1021 30.15 850 25.1 -5.8 21.6 77 -9.2 15.5
04:35 1021 30.15 850 25.1 -5.8 21.6 74 -9.6 14.7
04:40 1021 30.15 850 25.1 -5.8 21.6 76 -9.3 15.3
04:45 1021 30.15 850 25.1 -5.8 21.5 78 -9.1 15.7
04:50 1021 30.15 850 25.1 -5.9 21.5 77 -9.2 15.4
04:55 1021 30.15 850 25.1 -5.9 21.3 77 -9.3 15.3
05:00 1021 30.15 850 25.1 -5.9 21.4 78 -9.2 15.5
05:05 1021 30.15 850 25.1 -5.9 21.4 77 -9.3 15.3
05:10 1021 30.15 850 25.1 -5.9 21.4 77 -9.3 15.3
05:15 1021 30.15 850 25.1 -5.9 21.4 78 -9.2 15.4
05:20 1021 30.15 850 25.1 -5.9 21.3 78 -9.2 15.4
05:25 1021 30.15 850 25.1 -5.9 21.3 78 -9.2 15.5
05:30 1021 30.15 850 25.1 -5.9 21.4 77 -9.3 15.3
05:35 1021 30.15 850 25.1 -5.9 21.3 78 -9.2 15.4
05:40 1021 30.15 850 25.1 -5.9 21.3 78 -9.2 15.5
05:45 1020 30.12 850 25.1 -5.9 21.3 78 -9.2 15.5
05:50 1020 30.12 850 25.1 -5.9 21.3 78 -9.1 15.6
05:55 1020 30.12 850 25.1 -5.9 21.3 78 -9.1 15.5
06:00 1021 30.15 850 25.1 -5.9 21.4 78 -9.1 15.6
06:05 1021 30.15 850 25.1 -5.9 21.4 83 -8.4 16.9
06:10 1021 30.15 850 25.1 -5.9 21.4 89 -7.4 18.7
06:15 1021 30.15 850 25.1 -6.1 21.1 88 -7.8 18
06:20 1021 30.15 850 25.1 -6.5 20.3 90 -7.9 17.8
06:25 1021 30.15 850 25.1 -6.6 20.1 90 -7.9 17.7
06:30 1021 30.15 850 25.1 -6.7 19.9 91 -8 17.6
06:35 1021 30.15 850 25.1 -6.9 19.6 91 -8.2 17.3
06:40 1021 30.15 850 25.1 -6.9 19.6 91 -8.2 17.3
06:45 1021 30.15 850 25.1 -6.9 19.5 92 -8 17.6
06:50 1021 30.15 850 25.1 -6.8 19.8 91 -8 17.7
06:55 1021 30.15 850 25.1 -6.9 19.6 91 -8.1 17.4
07:00 1021 30.15 850 25.1 -6.9 19.6 91 -8.1 17.5
07:05 1021 30.15 850 25.1 -6.8 19.8 91 -8 17.7
07:10 1021 30.15 850 25.1 -6.9 19.6 91 -8.2 17.3
07:15 1021 30.15 850 25.1 -7 19.3 92 -8.2 17.3
07:20 1021 30.15 850 25.1 -6.9 19.6 91 -8.1 17.5
07:25 1021 30.15 850 25.1 -6.8 19.7 91 -8 17.6
07:30 1021 30.15 850 25.1 -6.8 19.8 91 -8.1 17.5
07:35 1021 30.15 850 25.1 -6.8 19.8 91 -8 17.6
07:40 1021 30.15 850 25.1 -6.7 19.9 91 -8 17.6
07:45 1021 30.15 850 25.1 -6.7 19.9 90 -8 17.5
07:50 1021 30.15 850 25.1 -6.7 20 90 -8 17.6
07:55 1021 30.15 850 25.1 -6.6 20 90 -8 17.7
08:00 1021 30.15 850 25.1 -6.7 20 90 -8 17.6
08:05 1021 30.15 850 25.1 -6.7 19.9 91 -8 17.5
08:10 1021 30.15 850 25.1 -6.9 19.6 91 -8.1 17.4
08:15 1021 30.15 850 25.1 -7 19.4 91 -8.2 17.3
08:20 1021 30.15 850 25.1 -7 19.5 91 -8.1 17.3
08:25 1021 30.15 850 25.1 -7 19.3 91 -8.3 17.1
08:30 1021 30.15 850 25.1 -7.2 19.1 92 -8.3 17.1
08:35 1021 30.15 850 25.1 -7.2 19.1 92 -8.3 17.1
08:40 1021 30.15 850 25.1 -7.1 19.2 92 -8.2 17.2
08:45 1021 30.15 850 25.1 -7.1 19.3 92 -8.2 17.3
08:50 1021 30.15 850 25.1 -7 19.3 91 -8.2 17.2
08:55 1021 30.15 850 25.1 -7.1 19.3 91 -8.2 17.2
09:00 1021 30.15 850 25.1 -7 19.4 91 -8.2 17.3
09:05 1021 30.15 850 25.1 -7 19.4 91 -8.2 17.2
09:10 1021 30.15 850 25.1 -7 19.4 91 -8.2 17.2
09:15 1021 30.15 850 25.1 -7 19.5 91 -8.2 17.2
09:20 1021 30.15 850 25.1 -7 19.4 91 -8.2 17.2
09:25 1020 30.12 850 25.1 -7 19.4 91 -8.3 17.1
09:30 1020 30.12 850 25.1 -6.8 19.7 90 -8.2 17.2
09:35 1020 30.12 850 25.1 -6.7 19.9 89 -8.2 17.2
09:40 1020 30.12 850 25.1 -6.7 20 88 -8.3 17.1
09:45 1020 30.12 850 25.1 -6.5 20.2 88 -8.2 17.2
09:50 1020 30.12 850 25.1 -6.4 20.5 86 -8.3 17.1
09:55 1020 30.12 850 25.1 -6.1 21 85 -8.2 17.3
10:00 1020 30.12 850 25.1 -5.8 21.6 84 -8.1 17.4
10:05 1020 30.12 850 25.1 -5.4 22.3 82 -8 17.5
10:10 1020 30.12 850 25.1 -5 22.9 79 -8.2 17.2
10:15 1020 30.12 850 25.1 -4.9 23.2 78 -8.1 17.4
10:20 1020 30.12 850 25.1 -4.6 23.6 77 -8.1 17.5
10:25 1020 30.12 850 25.1 -4.7 23.5 80 -7.8 18
10:30 1020 30.12 850 25.1 -4.7 23.6 81 -7.4 18.6
10:35 1020 30.12 849 25.07 -4.9 23.1 84 -7.3 18.9
10:40 1020 30.12 849 25.07 -4.8 23.3 82 -7.4 18.7
10:45 1020 30.12 849 25.07 -4.9 23.2 85 -7.1 19.3
10:50 1020 30.12 850 25.1 -4.9 23.2 83 -7.3 18.9
10:55 1020 30.12 850 25.1 -4.6 23.7 82 -7.3 18.9
11:00 1020 30.12 850 25.1 -4.5 23.9 81 -7.3 18.9
11:05 1020 30.12 850 25.1 -4.5 23.9 82 -7.2 19.1
11:10 1020 30.12 850 25.1 -5 23 85 -7.1 19.2
11:15 1020 30.12 850 25.1 -5 23.1 84 -7.2 19
11:20 1020 30.12 850 25.1 -4.6 23.6 82 -7.3 18.8
11:25 1020 30.12 849 25.07 -4.8 23.3 81 -7.6 18.4
11:30 1020 30.12 849 25.07 -4.8 23.4 82 -7.4 18.6
11:35 1020 30.12 849 25.07 -4.2 24.4 78 -7.4 18.6
11:40 1020 30.12 849 25.07 -4.3 24.3 80 -7.1 19.1
11:45 1020 30.12 849 25.07 -3.7 25.3 78 -7 19.4
11:50 1020 30.12 849 25.07 -3.4 25.9 77 -6.8 19.7
11:55 1020 30.12 849 25.07 -3.2 26.3 74 -7.1 19.2
12:00 1020 30.12 850 25.1 -3.6 25.4 77 -7.1 19.2
12:05 1020 30.12 850 25.1 -2.9 26.9 74 -6.9 19.6
12:10 1020 30.12 849 25.07 -2.2 28 72 -6.7 20
12:15 1020 30.12 849 25.07 -1.9 28.5 70 -6.6 20
12:20 1020 30.12 849 25.07 -2.4 27.6 72 -6.8 19.7
12:25 1020 30.12 849 25.07 -2.5 27.4 72 -6.8 19.7
12:30 1020 30.12 849 25.07 -2.5 27.5 72 -7 19.5
12:35 1020 30.12 849 25.07 -2.2 28.1 71 -6.8 19.8
12:40 1020 30.12 849 25.07 -1.9 28.5 71 -6.6 20.2
12:45 1020 30.12 849 25.07 -1.9 28.6 71 -6.5 20.3
12:50 1020 30.12 849 25.07 -2.3 27.8 72 -6.7 20
12:55 1020 30.12 849 25.07 -2.2 28 71 -6.8 19.7
13:00 1020 30.12 849 25.07 -2.5 27.6 72 -6.9 19.6
13:05 1020 30.12 849 25.07 -2.5 27.6 72 -6.9 19.6
13:10 1020 30.12 849 25.07 -2.3 27.8 73 -6.5 20.3
13:15 1020 30.12 849 25.07 -2.4 27.8 72 -6.7 19.9
13:20 1020 30.12 849 25.07 -2 28.3 71 -6.6 20.2
13:25 1020 30.12 849 25.07 -1.7 28.9 71 -6.4 20.6
13:30 1020 30.12 849 25.07 -1.4 29.5 70 -6.2 20.9
13:35 1020 30.12 849 25.07 -1.4 29.5 70 -6.1 20.9
13:40 1019 30.09 849 25.07 -1.7 29 71 -6.2 20.8
13:45 1019 30.09 849 25.07 -1.7 28.9 71 -6.3 20.7
13:50 1019 30.09 849 25.07 -1.3 29.6 68 -6.4 20.4
13:55 1019 30.09 849 25.07 -1.4 29.5 71 -6.1 21.1
14:00 1019 30.09 848 25.04 -1.8 28.8 73 -6 21.1
14:05 1019 30.09 848 25.04 -1.8 28.8 73 -6 21.3
14:10 1019 30.09 848 25.04 -1.6 29.2 73 -5.8 21.5
14:15 1019 30.09 848 25.04 -1.2 29.8 71 -5.8 21.6
14:20 1019 30.09 848 25.04 -1.1 30 71 -5.8 21.6
14:25 1019 30.09 848 25.04 -0.5 31.1 67 -6 21.2
14:30 1019 30.09 848 25.04 -0.5 31.1 69 -5.5 22.1
14:35 1019 30.09 848 25.04 -0.2 31.7 69 -5.1 22.8
14:40 1019 30.09 848 25.04 -0 32 68 -5.2 22.6
14:45 1019 30.09 848 25.04 0.1 32.1 68 -5.2 22.6
14:50 1019 30.09 848 25.04 0.2 32.3 68 -5 23.1
14:55 1019 30.09 848 25.04 0.4 32.7 66 -5.2 22.6
15:00 1019 30.09 848 25.04 0.2 32.3 69 -4.8 23.3
15:05 1019 30.09 848 25.04 0.1 32.2 68 -5.1 22.8
15:10 1019 30.09 848 25.04 0 32 69 -5 23
15:15 1018 30.06 848 25.04 0.4 32.8 66 -5.2 22.6
15:20 1018 30.06 848 25.04 0.3 32.6 69 -4.7 23.6
15:25 1018 30.06 848 25.04 0.2 32.4 68 -5 23
15:30 1018 30.06 848 25.04 0.1 32.1 68 -5.1 22.7
15:35 1018 30.06 848 25.04 0.2 32.3 69 -4.9 23.1
15:40 1018 30.06 848 25.04 0.4 32.8 68 -4.8 23.3
15:45 1018 30.06 848 25.04 0.5 32.9 67 -4.9 23.1
15:50 1018 30.06 848 25.04 0.4 32.7 69 -4.6 23.6
15:55 1018 30.06 848 25.04 0.4 32.7 70 -4.5 23.9
16:00 1018 30.06 847 25.01 0.3 32.5 69 -4.7 23.6
16:05 1018 30.06 847 25.01 0 32 69 -4.9 23.1
16:10 1018 30.06 847 25.01 0.1 32.1 69 -5 23
16:15 1018 30.06 847 25.01 0 32.1 70 -4.8 23.4
16:20 1018 30.06 847 25.01 -0.2 31.6 72 -4.7 23.6
16:25 1018 30.06 847 25.01 -0.3 31.5 72 -4.7 23.5
16:30 1018 30.06 847 25.01 -0.2 31.6 72 -4.7 23.5
16:35 1018 30.06 847 25.01 -0.3 31.4 71 -4.9 23.2
16:40 1018 30.06 847 25.01 -0.1 31.8 71 -4.8 23.4
16:45 1018 30.06 847 25.01 -0 32 70 -4.8 23.4
16:50 1018 30.06 847 25.01 -0.2 31.7 72 -4.6 23.7
16:55 1018 30.06 847 25.01 0.1 32.2 71 -4.5 24
17:00 1018 30.06 847 25.01 0 32.1 73 -4.3 24.3
17:05 1018 30.06 847 25.01 -0.2 31.7 72 -4.6 23.8
17:10 1018 30.06 847 25.01 -0.4 31.4 74 -4.5 24
17:15 1018 30.06 847 25.01 -0.2 31.7 73 -4.4 24
17:20 1018 30.06 847 25.01 -0.2 31.6 73 -4.4 24
17:25 1018 30.06 847 25.01 -0.4 31.3 75 -4.4 24.1
17:30 1018 30.06 847 25.01 -0.3 31.4 74 -4.4 24.2
17:35 1018 30.06 847 25.01 -0.3 31.4 75 -4.3 24.3
17:40 1018 30.06 847 25.01 -0.3 31.4 75 -4.2 24.4
17:45 1018 30.06 847 25.01 -0.3 31.5 75 -4.2 24.5
17:50 1018 30.06 847 25.01 -0.3 31.5 74 -4.3 24.3
17:55 1018 30.06 847 25.01 -0.4 31.4 76 -4.1 24.6
18:00 1018 30.06 847 25.01 -0.3 31.5 75 -4.1 24.5
18:05 1018 30.06 847 25.01 -0.3 31.4 75 -4.2 24.4
18:10 1018 30.06 847 25.01 -0.5 31.1 77 -4.1 24.6
18:15 1018 30.06 847 25.01 -0.4 31.2 76 -4.2 24.4
18:20 1018 30.06 847 25.01 -0.4 31.2 76 -4.1 24.5
18:25 1018 30.06 847 25.01 -0.4 31.2 77 -4 24.8
18:30 1018 30.06 847 25.01 -0.5 31.2 77 -4 24.7
18:35 1018 30.06 847 25.01 -0.5 31.1 76 -4.2 24.5
18:40 1018 30.06 847 25.01 -0.6 30.9 77 -4.2 24.4
18:45 1018 30.06 847 25.01 -0.7 30.8 77 -4.2 24.4
18:50 1018 30.06 847 25.01 -0.6 30.9 77 -4.2 24.5
18:55 1018 30.06 847 25.01 -0.7 30.7 78 -4.1 24.6
19:00 1018 30.06 847 25.01 -0.7 30.7 78 -4.1 24.6
19:05 1018 30.06 847 25.01 -0.8 30.5 78 -4.2 24.4
19:10 1018 30.06 847 25.01 -0.9 30.4 78 -4.2 24.4
19:15 1018 30.06 847 25.01 -0.8 30.5 77 -4.3 24.2
19:20 1018 30.06 847 25.01 -0.8 30.5 78 -4.2 24.5
19:25 1018 30.06 847 25.01 -0.8 30.6 78 -4.2 24.4
19:30 1017 30.03 847 25.01 -0.8 30.6 79 -4 24.8
19:35 1017 30.03 847 25.01 -0.7 30.7 80 -3.8 25.1
19:40 1017 30.03 847 25.01 -0.7 30.8 79 -3.9 25
19:45 1017 30.03 847 25.01 -0.7 30.7 79 -3.9 25
19:50 1017 30.03 847 25.01 -0.8 30.6 77 -4.3 24.2
19:55 1017 30.03 847 25.01 -0.7 30.7 78 -4.1 24.6
20:00 1017 30.03 847 25.01 -0.8 30.5 79 -4 24.8
20:05 1017 30.03 847 25.01 -0.7 30.7 79 -4 24.8
20:10 1017 30.03 847 25.01 -0.7 30.7 77 -4.3 24.3
20:15 1017 30.03 847 25.01 -0.6 30.9 78 -4.1 24.7
20:20 1017 30.03 847 25.01 -0.6 30.9 78 -4 24.8
20:25 1017 30.03 847 25.01 -0.5 31.1 77 -4 24.8
20:30 1017 30.03 847 25.01 -0.5 31 78 -3.9 25
20:35 1018 30.06 847 25.01 -0.6 31 79 -3.7 25.3
20:40 1018 30.06 847 25.01 -0.5 31.1 80 -3.6 25.5
20:45 1018 30.06 847 25.01 -0.4 31.3 81 -3.3 26
20:50 1018 30.06 847 25.01 -0.3 31.4 81 -3.1 26.3
20:55 1018 30.06 847 25.01 -0.1 31.8 79 -3.3 26
21:00 1018 30.06 847 25.01 0.3 32.5 77 -3.3 26
21:05 1017 30.03 847 25.01 0.6 33.1 75 -3.3 26
21:10 1018 30.06 847 25.01 0.8 33.5 72 -3.7 25.3
21:15 1018 30.06 847 25.01 1.1 34 72 -3.5 25.8
21:20 1018 30.06 847 25.01 0.9 33.7 78 -2.6 27.4
21:25 1018 30.06 847 25.01 -0 32 83 -2.6 27.2
21:30 1018 30.06 847 25.01 -0.2 31.6 82 -2.9 26.7
21:35 1018 30.06 847 25.01 -0.4 31.2 83 -3 26.5
21:40 1018 30.06 847 25.01 -0.4 31.2 83 -3 26.6
21:45 1018 30.06 847 25.01 -0.5 31.1 83 -3 26.5
21:50 1018 30.06 847 25.01 -0.5 31.1 82 -3.2 26.2
21:55 1018 30.06 847 25.01 -0.3 31.5 81 -3.1 26.4
22:00 1018 30.06 847 25.01 -0.1 31.8 79 -3.4 25.9
22:05 1017 30.03 847 25.01 0.4 32.8 76 -3.4 25.9
22:10 1017 30.03 847 25.01 0.6 33.1 77 -3 26.6
22:15 1017 30.03 847 25.01 0.7 33.2 76 -3.1 26.4
22:20 1017 30.03 847 25.01 0.8 33.4 74 -3.3 26.1
22:25 1017 30.03 847 25.01 0.9 33.6 73 -3.3 26
22:30 1017 30.03 846 24.98 1.1 34 73 -3.2 26.3
22:35 1017 30.03 846 24.98 1.2 34.2 73 -3.1 26.3
22:40 1017 30.03 846 24.98 1.5 34.7 71 -3.2 26.2
22:45 1017 30.03 846 24.98 1.8 35.2 70 -3.1 26.5
22:50 1017 30.03 846 24.98 1.6 34.9 73 -2.7 27.1
22:55 1017 30.03 846 24.98 1.5 34.7 72 -3 26.7
23:00 1017 30.03 846 24.98 1.5 34.6 73 -2.8 26.9
23:05 1017 30.03 846 24.98 0.9 33.7 76 -2.9 26.8
23:10 1017 30.03 846 24.98 1.2 34.2 72 -3.2 26.2
23:15 1017 30.03 846 24.98 1.6 34.9 71 -3.2 26.3
23:20 1017 30.03 846 24.98 1.8 35.2 72 -2.8 26.9
23:25 1017 30.03 846 24.98 1.7 35 71 -3 26.7
23:30 1017 30.03 846 24.98 1.8 35.2 71 -2.9 26.8
23:35 1017 30.03 846 24.98 1.4 34.6 73 -3 26.7
23:40 1017 30.03 846 24.98 1.3 34.4 73 -3.1 26.5
23:45 1017 30.03 846 24.98 1.9 35.4 69 -3.2 26.3
23:50 1017 30.03 846 24.98 2.1 35.8 68 -3.1 26.4
23:55 1017 30.03 846 24.98 2.5 36.5 67 -3 26.7
24:00 1017 30.03 846 24.98 2.4 36.3 68 -2.9 26.7